Currently 66°F in Lake Elsinore, California, USA
66°F
69°F / 47°F
10 mph SW
0.00"
Friday, January 19, 2018 3:15 PM PST

Lake Elsinore, California Weather Summary
Last 36 Hours

Temperature Winds Hourly Humidity Dewpoint
Time Report Norm Report Norm Max Gusts Precip. Rpt. Norm Rpt. Norm Pressure
1Fri 03:15 PM  65.7°F  68°F  10 mph SW  3 mph  14 mph  0.00"  53%  39%  47°F  41°F  29.93"
Fri 03:00 PM  66.0°F  68°F  5 mph SW  3 mph  19 mph  0.00"  52%  39%  47°F  41°F  29.93"
Fri 02:00 PM  68.6°F  68°F  calm  4 mph  8 mph  0.00"  46%  38%  46°F  41°F  29.94"
Fri 01:00 PM  68.6°F  67°F  3 mph SE  3 mph  8 mph  0.00"  47%  39%  47°F  41°F  29.96"
2Fri 12:47 PM  69.5°F  67°F  4 mph E  3 mph  6 mph  ----  46%  40%  47°F  41°F  29.97"
Fri 12:00 PM  66.5°F  66°F  2 mph SE  3 mph  6 mph  0.00"  48%  43%  46°F  41°F  30.00"
Fri 11:00 AM  62.4°F  63°F  3 mph SE  2 mph  6 mph  0.00"  58%  48%  47°F  42°F  30.05"
Fri 10:00 AM  55.6°F  59°F  calm  2 mph  4 mph  0.00"  75%  57%  47°F  43°F  30.07"
Fri 09:00 AM  50.6°F  55°F  calm  2 mph  2 mph  0.00"  86%  67%  47°F  43°F  30.06"
Fri 08:00 AM  49.3°F  47°F  calm  1 mph  3 mph  0.00"  86%  77%  45°F  40°F  30.06"
Fri 07:00 AM  48.4°F  43°F  calm  1 mph  3 mph  0.00"  86%  79%  44°F  37°F  30.05"
Fri 06:00 AM  48.9°F  44°F  1 mph E  1 mph  3 mph  0.00"  85%  79%  45°F  37°F  30.05"
3Fri 05:27 AM  46.9°F  44°F  calm  1 mph  2 mph  ----  81%  78%  41°F  37°F  30.06"
Fri 05:00 AM  47.2°F  44°F  calm  1 mph  none  0.00"  79%  78%  41°F  37°F  30.06"
Fri 04:00 AM  47.8°F  44°F  calm  1 mph  3 mph  0.00"  77%  77%  40°F  37°F  30.06"
Fri 03:00 AM  48.5°F  45°F  calm  1 mph  4 mph  0.00"  75%  76%  40°F  37°F  30.06"
Fri 02:00 AM  50.1°F  45°F  calm  calm  2 mph  0.00"  73%  74%  41°F  37°F  30.06"
Fri 01:00 AM  50.9°F  46°F  calm  1 mph  1 mph  0.00"  72%  73%  42°F  37°F  30.05"
Fri 12:00 AM  52.2°F  47°F  calm  1 mph  none  0.00"  69%  71%  42°F  38°F  30.06"
Thu 11:00 PM  53.7°F  48°F  calm  1 mph  2 mph  0.00"  67%  69%  43°F  38°F  30.08"
Thu 10:00 PM  55.7°F  50°F  calm  1 mph  1 mph  0.00"  64%  66%  43°F  38°F  30.09"
Thu 09:00 PM  57.3°F  51°F  calm  1 mph  2 mph  0.00"  63%  63%  44°F  39°F  30.08"
Thu 08:00 PM  59.6°F  53°F  calm  1 mph  3 mph  0.00"  59%  59%  45°F  39°F  30.08"
Thu 07:00 PM  62.9°F  55°F  calm  2 mph  3 mph  0.00"  57%  56%  47°F  39°F  30.07"
Thu 06:00 PM  67.2°F  58°F  calm  2 mph  6 mph  0.00"  43%  52%  43°F  40°F  30.06"
Thu 05:00 PM  71.6°F  62°F  calm  2 mph  7 mph  0.00"  36%  46%  42°F  40°F  30.04"
Thu 04:00 PM  78.5°F  66°F  4 mph SW  3 mph  12 mph  0.00"  25%  40%  39°F  40°F  30.05"
Thu 03:00 PM  82.4°F  68°F  3 mph SW  3 mph  8 mph  0.00"  16%  38%  30°F  40°F  30.05"
Thu 02:00 PM  82.3°F  68°F  calm  4 mph  4 mph  0.00"  14%  37%  27°F  40°F  30.05"
Thu 01:00 PM  80.3°F  68°F  2 mph E  3 mph  6 mph  0.00"  15%  38%  26°F  40°F  30.07"
Thu 12:00 PM  76.7°F  66°F  calm  3 mph  5 mph  0.00"  22%  41%  33°F  41°F  30.11"
Thu 11:00 AM  71.8°F  63°F  calm  3 mph  4 mph  0.00"  26%  46%  34°F  41°F  30.15"
Thu 10:00 AM  69.3°F  59°F  1 mph SE  2 mph  3 mph  0.00"  35%  55%  39°F  42°F  30.18"
Thu 09:00 AM  63.0°F  55°F  calm  2 mph  none  0.00"  50%  65%  43°F  43°F  30.19"
Thu 08:00 AM  50.8°F  48°F  calm  1 mph  none  0.00"  71%  76%  41°F  40°F  30.18"
Thu 07:00 AM  47.1°F  43°F  calm  1 mph  2 mph  0.00"  72%  78%  38°F  37°F  30.15"
Thu 06:00 AM  47.5°F  44°F  1 mph NW  1 mph  none  0.00"  70%  78%  38°F  37°F  30.14"
Thu 05:00 AM  48.4°F  44°F  calm  1 mph  3 mph  0.00"  68%  77%  38°F  37°F  30.13"
Thu 04:00 AM  49.5°F  44°F  calm  1 mph  none  0.00"  66%  77%  38°F  37°F  30.13"

  1. Current weather data. No green row appears if the current weather data is also the high or low for the current day.
  2. High temperature for the current day.
  3. Low temperature for the current day.

The Lake Elsinore, California weather pages are a service of WeatherCurrents. Lake Elsinore is located south of Corona and north of the Temecula Valley, in southwestern Riverside County, California.
Copyright ©Fri Jan 19 15:16:30 PST 2018  WeatherCurrents. All rights reserved. - Submit questions and comments - Privacy Policy

This page automatically refreshes every 10 minutes.